createdAt,value
2019-03-15T10:32:55.141Z,400.00
2019-03-15T10:32:56.869Z,417.00
2019-03-15T10:32:58.878Z,434.00
2019-03-15T10:33:00.904Z,431.00
2019-03-15T10:33:02.874Z,466.00
2019-03-15T10:33:04.872Z,497.00
2019-03-15T10:33:06.877Z,485.00
2019-03-15T10:33:09.949Z,482.00
2019-03-15T10:33:11.873Z,497.00
2019-03-15T10:33:13.864Z,500.00
2019-03-15T10:33:16.892Z,483.00
2019-03-15T10:33:18.886Z,477.00
2019-03-15T10:33:20.888Z,481.00
2019-03-15T10:33:23.893Z,477.00
2019-03-15T10:33:25.904Z,492.00
2019-03-15T10:33:27.886Z,481.00
2019-03-15T10:33:29.875Z,450.00
2019-03-15T10:33:32.874Z,442.00
2019-03-15T10:33:34.878Z,433.00
2019-03-15T10:33:49.580Z,431.00
2019-03-15T10:33:50.200Z,3613.00
2019-03-15T10:33:52.866Z,547.00
2019-03-15T10:33:54.879Z,472.00
2019-03-15T10:33:56.950Z,449.00
2019-03-15T10:33:58.871Z,442.00
2019-03-15T10:34:00.930Z,439.00
2019-03-15T10:34:05.682Z,426.00
2019-03-15T10:34:07.894Z,440.00
2019-03-15T10:34:09.867Z,432.00
2019-03-15T10:34:11.880Z,423.00
2019-03-15T10:34:13.890Z,419.00
2019-03-15T10:34:15.880Z,409.00
2019-03-15T10:34:18.874Z,401.00
2019-03-15T10:34:20.869Z,419.00
2019-03-15T10:34:22.866Z,438.00
2019-03-15T10:34:25.888Z,430.00
2019-03-15T10:34:27.884Z,414.00
2019-03-15T10:34:29.879Z,404.00
2019-03-15T10:34:31.869Z,413.00
2019-03-15T10:34:35.787Z,412.00
2019-03-15T10:34:37.946Z,412.00
2019-03-15T10:34:39.871Z,412.00
2019-03-15T10:34:41.875Z,421.00
2019-03-15T10:34:43.869Z,416.00
2019-03-15T10:34:45.865Z,416.00
2019-03-15T10:35:52.139Z,400.00
2019-03-15T10:35:53.885Z,413.00
2019-03-15T10:35:55.900Z,403.00
2019-03-15T10:35:57.872Z,414.00
2019-03-15T10:36:20.137Z,400.00
2019-03-15T10:36:21.870Z,400.00
2019-03-15T10:36:23.862Z,410.00
2019-03-15T10:36:25.876Z,405.00
2019-03-15T10:36:27.885Z,400.00
2019-03-15T10:36:29.872Z,403.00
2019-03-15T10:36:34.537Z,401.00
2019-03-15T10:36:35.870Z,410.00
2019-03-15T10:36:37.901Z,415.00
2019-03-15T10:36:40.882Z,415.00
2019-03-15T10:36:42.880Z,421.00
2019-03-15T10:36:44.876Z,429.00
2019-03-15T10:36:47.871Z,436.00
2019-03-15T10:36:49.177Z,448.00
2019-03-15T10:36:51.873Z,465.00
2019-03-15T10:36:53.877Z,476.00
2019-03-15T10:36:56.867Z,500.00
2019-03-15T10:36:58.865Z,504.00
2019-03-15T10:37:00.884Z,497.00
2019-03-15T10:37:06.231Z,503.00
2019-03-15T10:37:07.896Z,536.00
2019-03-15T10:37:09.865Z,546.00
2019-03-15T10:37:11.882Z,557.00
2019-03-15T10:37:13.878Z,548.00
2019-03-15T10:37:15.875Z,560.00
2019-03-15T10:37:17.895Z,567.00
2019-03-15T10:37:19.868Z,578.00
2019-03-15T10:37:21.901Z,584.00
2019-03-15T10:37:23.863Z,602.00
2019-03-15T10:37:26.886Z,623.00
2019-03-15T10:37:28.863Z,1137.00
2019-03-15T10:37:30.865Z,1117.00
2019-03-15T10:37:32.874Z,934.00
2019-03-15T10:37:35.886Z,735.00
2019-03-15T10:37:37.887Z,677.00
2019-03-15T10:37:39.886Z,675.00
2019-03-15T10:37:42.885Z,686.00
2019-03-15T10:37:44.884Z,647.00
2019-03-15T10:37:46.888Z,642.00
2019-03-15T10:37:49.877Z,630.00
2019-03-15T10:37:51.892Z,616.00
2019-03-15T10:37:53.867Z,602.00
2019-03-15T10:37:55.906Z,595.00
2019-03-15T10:37:58.882Z,602.00
2019-03-15T10:38:00.897Z,605.00
2019-03-15T10:38:02.876Z,604.00
2019-03-15T10:38:05.902Z,598.00
2019-03-15T10:38:07.878Z,607.00
2019-03-15T10:38:09.886Z,595.00
2019-03-15T10:38:12.863Z,593.00
2019-03-15T10:38:16.718Z,583.00
2019-03-15T10:38:18.885Z,577.00
2019-03-15T10:38:20.873Z,575.00
2019-03-15T10:38:22.881Z,576.00
2019-03-15T10:38:24.862Z,585.00
2019-03-15T10:38:26.876Z,586.00
2019-03-15T10:38:28.884Z,585.00
2019-03-15T10:38:30.885Z,575.00
2019-03-15T10:38:32.885Z,584.00
2019-03-15T10:38:34.879Z,574.00
2019-03-15T10:38:37.878Z,579.00
2019-03-15T10:38:39.874Z,586.00
2019-03-15T10:38:41.872Z,593.00
2019-03-15T10:38:44.868Z,593.00
2019-03-15T10:38:46.890Z,588.00
2019-03-15T10:38:48.880Z,591.00
2019-03-15T10:38:51.877Z,599.00
2019-03-15T10:38:53.873Z,594.00
2019-03-15T10:38:55.871Z,585.00
2019-03-15T10:38:57.866Z,600.00
2019-03-15T10:39:00.864Z,594.00
2019-03-15T10:39:02.894Z,597.00
2019-03-15T10:39:04.887Z,780.00
2019-03-15T10:39:07.887Z,735.00
2019-03-15T10:39:09.885Z,1837.00
2019-03-15T10:39:11.879Z,1258.00
2019-03-15T10:39:14.883Z,1135.00
2019-03-15T10:39:16.898Z,991.00
2019-03-15T10:39:18.874Z,869.00
2019-03-15T10:39:20.879Z,730.00
2019-03-15T10:39:23.870Z,642.00
2019-03-15T10:39:25.868Z,680.00
2019-03-15T10:39:27.873Z,1061.00
2019-03-15T10:39:30.908Z,4337.00
2019-03-15T10:39:32.921Z,2256.00
2019-03-15T10:39:34.892Z,1500.00
2019-03-15T10:39:37.958Z,1219.00
2019-03-15T10:39:39.190Z,1240.00
2019-03-15T10:39:41.881Z,1224.00
2019-03-15T10:39:43.895Z,976.00
2019-03-15T10:39:46.876Z,755.00
2019-03-15T10:39:48.872Z,674.00
2019-03-15T10:39:50.865Z,746.00
2019-03-15T10:39:53.884Z,725.00
2019-03-15T10:39:55.886Z,1258.00
2019-03-15T10:39:57.888Z,3954.00
2019-03-15T10:40:00.612Z,1541.00
2019-03-15T10:40:02.892Z,1212.00
2019-03-15T10:40:04.883Z,963.00
2019-03-15T10:40:06.884Z,777.00
2019-03-15T10:40:09.893Z,733.00
2019-03-15T10:40:11.893Z,669.00
2019-03-15T10:40:13.887Z,650.00
2019-03-15T10:40:16.866Z,652.00
2019-03-15T10:40:18.864Z,630.00
2019-03-15T10:40:20.895Z,635.00
2019-03-15T10:40:22.889Z,644.00
2019-03-15T10:40:25.977Z,627.00
2019-03-15T10:40:27.903Z,609.00
2019-03-15T10:40:29.890Z,582.00
2019-03-15T10:40:32.871Z,599.00
2019-03-15T10:40:34.869Z,595.00
2019-03-15T10:40:36.913Z,595.00
2019-03-15T10:40:39.901Z,611.00
2019-03-15T10:40:41.896Z,607.00
2019-03-15T10:40:43.905Z,593.00
2019-03-15T10:40:45.899Z,595.00
2019-03-15T10:40:48.872Z,783.00
2019-03-15T10:40:50.866Z,1409.00
2019-03-15T10:40:52.885Z,1256.00
2019-03-15T10:40:55.896Z,1048.00
2019-03-15T10:41:01.055Z,865.00
2019-03-15T10:41:02.885Z,796.00
2019-03-15T10:41:04.886Z,4443.00
2019-03-15T10:41:06.871Z,5104.00
2019-03-15T10:41:08.875Z,3747.00
2019-03-15T10:41:11.869Z,3097.00
2019-03-15T10:41:13.884Z,1295.00
2019-03-15T10:41:15.885Z,1138.00
2019-03-15T10:41:18.884Z,1119.00
2019-03-15T10:41:20.884Z,976.00
2019-03-15T10:41:22.878Z,842.00
2019-03-15T10:41:24.876Z,806.00
2019-03-15T10:41:27.884Z,757.00
2019-03-15T10:41:29.875Z,746.00
2019-03-15T10:41:31.863Z,1474.00
2019-03-15T10:41:38.097Z,2100.00
2019-03-15T10:41:58.112Z,400.00
2019-03-15T10:41:59.886Z,400.00
2019-03-15T10:42:01.902Z,400.00
2019-03-15T10:42:04.897Z,400.00
2019-03-15T10:42:06.906Z,400.00
2019-03-15T10:42:08.948Z,400.00
2019-03-15T10:42:11.885Z,400.00
2019-03-15T10:42:13.888Z,400.00
2019-03-15T10:42:15.895Z,1254.00
2019-03-15T10:42:17.883Z,1565.00
2019-03-15T10:42:20.912Z,2173.00
2019-03-15T10:42:22.928Z,1452.00
2019-03-15T10:42:24.895Z,1141.00
2019-03-15T10:42:27.976Z,703.00
2019-03-15T10:42:29.891Z,650.00
2019-03-15T10:42:31.873Z,586.00
2019-03-15T10:42:34.871Z,479.00
2019-03-15T10:42:36.886Z,430.00
2019-03-15T10:42:38.881Z,415.00
2019-03-15T10:42:40.891Z,406.00
2019-03-15T10:42:43.879Z,400.00
2019-03-15T10:42:45.890Z,400.00
2019-03-15T10:42:47.900Z,401.00
2019-03-15T10:42:50.896Z,411.00
2019-03-15T10:42:55.558Z,435.00
2019-03-15T10:42:57.874Z,438.00
2019-03-15T10:43:00.071Z,415.00
2019-03-15T10:43:01.874Z,400.00
2019-03-15T10:43:03.891Z,400.00
2019-03-15T10:43:06.888Z,400.00
2019-03-15T10:43:08.879Z,400.00
2019-03-15T10:43:10.880Z,400.00
2019-03-15T10:43:13.878Z,406.00
2019-03-15T10:43:15.943Z,429.00
2019-03-15T10:43:17.951Z,418.00
2019-03-15T10:43:19.891Z,408.00
2019-03-15T10:43:22.937Z,414.00
2019-03-15T10:43:24.884Z,409.00
2019-03-15T10:43:26.884Z,423.00
2019-03-15T10:43:30.027Z,420.00
2019-03-15T10:43:31.921Z,422.00
2019-03-15T10:43:33.879Z,429.00
2019-03-15T10:43:36.897Z,436.00
2019-03-15T10:43:38.898Z,437.00
2019-03-15T10:43:40.882Z,441.00
2019-03-15T10:43:42.886Z,426.00
2019-03-15T10:43:45.885Z,502.00
2019-03-15T10:43:47.883Z,655.00
2019-03-15T10:43:49.880Z,589.00
2019-03-15T10:43:52.875Z,500.00
2019-03-15T10:43:54.879Z,461.00
2019-03-15T10:43:56.874Z,416.00
2019-03-15T10:43:59.882Z,408.00
2019-03-15T10:44:04.044Z,400.00
2019-03-15T10:44:06.889Z,400.00
2019-03-15T10:44:08.880Z,400.00
2019-03-15T10:44:10.891Z,400.00
2019-03-15T10:44:12.886Z,426.00
2019-03-15T10:44:15.869Z,501.00
2019-03-15T10:44:17.888Z,495.00
2019-03-15T10:44:19.890Z,525.00
2019-03-15T10:44:22.872Z,554.00
2019-03-15T10:44:24.886Z,578.00
2019-03-15T10:44:26.891Z,576.00
2019-03-15T10:44:28.899Z,598.00
2019-03-15T10:44:31.896Z,669.00
2019-03-15T10:44:33.886Z,778.00
2019-03-15T10:44:35.892Z,814.00
2019-03-15T10:44:38.894Z,806.00
2019-03-15T10:44:40.886Z,778.00
2019-03-15T10:44:42.888Z,731.00
2019-03-15T10:44:45.885Z,696.00
2019-03-15T10:44:47.665Z,680.00
2019-03-15T10:44:49.494Z,678.00
2019-03-15T10:44:51.767Z,656.00
2019-03-15T10:44:54.881Z,666.00
2019-03-15T10:44:56.881Z,646.00
2019-03-15T10:44:58.896Z,643.00
2019-03-15T10:45:01.878Z,638.00
2019-03-15T10:45:03.874Z,639.00
2019-03-15T10:45:05.878Z,618.00
2019-03-15T10:45:07.888Z,570.00
2019-03-15T10:45:10.891Z,564.00
2019-03-15T10:45:12.889Z,578.00
2019-03-15T10:45:14.884Z,595.00
2019-03-15T10:45:17.886Z,709.00
2019-03-15T10:45:19.895Z,758.00
2019-03-15T10:45:21.879Z,710.00
2019-03-15T10:45:24.879Z,693.00
2019-03-15T10:45:26.871Z,685.00
2019-03-15T10:45:28.874Z,691.00
2019-03-15T10:45:30.873Z,678.00
2019-03-15T10:45:33.871Z,683.00
2019-03-15T10:45:35.870Z,689.00
2019-03-15T10:45:37.897Z,692.00
2019-03-15T10:45:40.886Z,704.00
2019-03-15T10:45:42.892Z,707.00
2019-03-15T10:45:44.889Z,707.00
2019-03-15T10:45:47.875Z,719.00
2019-03-15T10:45:49.866Z,763.00
2019-03-15T10:45:51.882Z,726.00
2019-03-15T10:45:53.867Z,704.00
2019-03-15T10:45:56.872Z,693.00
2019-03-15T10:45:58.868Z,692.00
2019-03-15T10:46:00.883Z,870.00
2019-03-15T10:46:06.093Z,768.00
2019-03-15T10:46:08.892Z,664.00
2019-03-15T10:46:10.889Z,659.00
2019-03-15T10:46:12.878Z,671.00
2019-03-15T10:46:14.879Z,677.00
2019-03-15T10:46:16.878Z,664.00
2019-03-15T10:46:19.891Z,675.00
2019-03-15T10:46:21.867Z,678.00
2019-03-15T10:46:23.871Z,669.00
2019-03-15T10:46:26.870Z,659.00
2019-03-15T10:46:28.883Z,643.00
2019-03-15T10:46:30.872Z,655.00
2019-03-15T10:46:32.893Z,678.00
2019-03-15T10:46:35.891Z,678.00
2019-03-15T10:46:37.953Z,684.00
2019-03-15T10:46:40.649Z,693.00
2019-03-15T10:46:42.930Z,710.00
2019-03-15T10:46:44.895Z,712.00
2019-03-15T10:46:46.886Z,698.00
2019-03-15T10:46:49.872Z,709.00
2019-03-15T10:46:51.876Z,1242.00
2019-03-15T10:46:53.879Z,988.00
2019-03-15T10:46:56.885Z,867.00
2019-03-15T10:46:58.883Z,1132.00
2019-03-15T10:47:00.900Z,2434.00
2019-03-15T10:47:02.872Z,1856.00
2019-03-15T10:47:05.910Z,1618.00
2019-03-15T10:47:07.881Z,1021.00
2019-03-15T10:47:09.932Z,778.00
2019-03-15T10:47:12.903Z,625.00
2019-03-15T10:47:14.887Z,538.00
2019-03-15T10:47:16.886Z,796.00
2019-03-15T10:47:18.887Z,2148.00
2019-03-15T10:47:21.900Z,2989.00
2019-03-15T10:47:23.890Z,1468.00
2019-03-15T10:47:25.883Z,791.00
2019-03-15T10:47:29.008Z,1191.00
2019-03-15T10:47:30.888Z,1075.00
2019-03-15T10:47:32.980Z,1011.00
2019-03-15T10:47:35.877Z,708.00
2019-03-15T10:47:37.606Z,583.00
2019-03-15T10:47:42.155Z,520.00
2019-03-15T10:47:44.878Z,466.00
2019-03-15T10:47:46.878Z,458.00
2019-03-15T10:47:48.869Z,438.00
2019-03-15T10:47:51.875Z,415.00
2019-03-15T10:47:53.867Z,406.00
2019-03-15T10:47:55.867Z,400.00
2019-03-15T10:47:57.889Z,400.00
2019-03-15T10:48:00.888Z,415.00
2019-03-15T10:48:02.889Z,515.00
2019-03-15T10:48:07.936Z,491.00
2019-03-15T10:48:09.895Z,428.00
2019-03-15T10:48:24.618Z,415.00
2019-03-15T10:48:25.111Z,400.00
2019-03-15T10:48:27.886Z,404.00
2019-03-15T10:48:29.890Z,400.00
2019-03-15T10:48:31.889Z,414.00
2019-03-15T10:48:33.883Z,438.00
2019-03-15T10:48:35.881Z,486.00
2019-03-15T10:48:38.540Z,448.00
2019-03-15T10:48:41.541Z,406.00
2019-03-15T10:48:44.617Z,479.00
2019-03-15T10:48:46.887Z,429.00
2019-03-15T10:48:48.883Z,442.00
2019-03-15T10:48:50.918Z,424.00
2019-03-15T10:48:53.869Z,782.00
2019-03-15T10:48:56.541Z,1059.00
2019-03-15T10:48:59.544Z,899.00
2019-03-15T10:53:55.176Z,400.00
2019-03-15T10:53:56.891Z,400.00
2019-03-15T10:53:58.877Z,401.00
2019-03-15T10:54:00.876Z,400.00
2019-03-15T10:54:02.870Z,400.00
2019-03-15T10:54:05.890Z,400.00
2019-03-15T10:54:07.892Z,417.00
2019-03-15T10:54:09.886Z,417.00
2019-03-15T10:54:12.901Z,420.00
2019-03-15T10:54:14.878Z,414.00
2019-03-15T10:54:16.893Z,418.00
2019-03-15T10:54:18.866Z,426.00
2019-03-15T10:54:21.882Z,436.00
2019-03-15T10:54:23.977Z,427.00
2019-03-15T10:54:25.902Z,436.00
2019-03-15T10:54:28.886Z,447.00
2019-03-15T10:54:30.890Z,454.00
2019-03-15T10:54:32.921Z,471.00
2019-03-15T10:54:35.860Z,924.00
2019-03-15T10:54:37.199Z,890.00
2019-03-15T10:54:39.873Z,1347.00
2019-03-15T10:54:41.902Z,1093.00
2019-03-15T10:54:44.883Z,901.00
2019-03-15T10:54:46.883Z,707.00
2019-03-15T10:54:48.891Z,648.00
2019-03-15T10:54:51.871Z,579.00
2019-03-15T10:54:53.909Z,545.00
2019-03-15T10:54:55.870Z,545.00
2019-03-15T10:54:57.957Z,522.00
2019-03-15T10:55:00.883Z,528.00
2019-03-15T10:55:02.877Z,531.00
2019-03-15T10:55:04.877Z,541.00
2019-03-15T10:55:07.871Z,537.00
2019-03-15T10:55:09.898Z,550.00
2019-03-15T10:55:11.901Z,1054.00
2019-03-15T10:55:14.886Z,1301.00
2019-03-15T10:55:20.351Z,1004.00
2019-03-15T10:55:21.875Z,676.00
2019-03-15T10:55:23.917Z,638.00
2019-03-15T10:55:25.874Z,608.00
2019-03-15T10:55:27.866Z,602.00
2019-03-15T10:55:30.899Z,598.00
2019-03-15T10:55:32.886Z,589.00
2019-03-15T10:55:34.935Z,587.00
2019-03-15T10:55:37.881Z,594.00
2019-03-15T10:55:39.175Z,609.00
2019-03-15T10:55:41.890Z,602.00
2019-03-15T10:55:43.876Z,595.00
2019-03-15T10:55:59.260Z,602.00
2019-03-15T10:56:00.056Z,620.00
2019-03-15T10:56:02.877Z,619.00
2019-03-15T10:56:04.907Z,632.00
2019-03-15T10:56:06.870Z,828.00
2019-03-15T10:56:08.869Z,920.00
2019-03-15T10:56:10.891Z,771.00
2019-03-15T10:56:12.882Z,662.00
2019-03-15T10:56:14.982Z,616.00
2019-03-15T10:56:16.884Z,600.00
2019-03-15T10:56:18.910Z,588.00
2019-03-15T10:56:41.116Z,400.00
2019-03-15T10:56:42.886Z,400.00
2019-03-15T10:56:44.867Z,412.00
2019-03-15T10:56:46.898Z,418.00
2019-03-15T10:56:48.874Z,425.00
2019-03-15T10:56:50.899Z,440.00
2019-03-15T10:56:52.867Z,438.00
2019-03-15T10:56:54.889Z,422.00
2019-03-15T10:56:56.892Z,433.00
2019-03-15T10:56:58.880Z,436.00
2019-03-15T10:57:01.902Z,447.00
2019-03-15T10:57:03.873Z,442.00
2019-03-15T10:57:05.865Z,445.00
2019-03-15T10:57:08.887Z,422.00
2019-03-15T10:57:10.874Z,430.00
2019-03-15T10:57:12.881Z,437.00
2019-03-15T10:57:14.889Z,427.00
2019-03-15T10:57:17.908Z,437.00
2019-03-15T10:57:19.990Z,433.00
2019-03-15T10:57:21.970Z,438.00
2019-03-15T10:57:24.897Z,419.00
2019-03-15T10:57:27.038Z,422.00
2019-03-15T10:57:28.915Z,427.00
2019-03-15T10:57:30.884Z,416.00
2019-03-15T10:57:33.867Z,435.00
2019-03-15T10:57:35.921Z,450.00
2019-03-15T10:57:37.896Z,718.00
2019-03-15T10:57:40.882Z,617.00
2019-03-15T10:57:42.880Z,568.00
2019-03-15T10:57:44.875Z,513.00
2019-03-15T10:57:47.880Z,491.00
2019-03-15T10:57:49.954Z,488.00
2019-03-15T10:57:51.879Z,481.00
2019-03-15T10:57:53.871Z,492.00
2019-03-15T10:57:56.878Z,491.00
2019-03-15T10:57:58.873Z,488.00
2019-03-15T10:58:00.874Z,503.00
2019-03-15T10:58:03.870Z,1874.00
2019-03-15T10:58:05.906Z,1130.00
2019-03-15T10:58:07.885Z,682.00
2019-03-15T10:58:10.910Z,570.00
2019-03-15T10:58:12.881Z,529.00
2019-03-15T10:58:14.879Z,511.00
2019-03-15T10:58:16.866Z,483.00
2019-03-15T10:58:19.865Z,473.00
2019-03-15T10:58:21.885Z,451.00
2019-03-15T10:58:23.887Z,457.00
2019-03-15T10:58:26.883Z,443.00
2019-03-15T10:58:28.886Z,443.00
2019-03-15T10:58:30.874Z,428.00
2019-03-15T10:58:33.854Z,437.00
2019-03-15T10:58:35.163Z,447.00
2019-03-15T10:58:37.893Z,453.00
2019-03-15T10:58:39.880Z,436.00
2019-03-15T10:58:42.889Z,443.00
2019-03-15T10:58:44.874Z,446.00
2019-03-15T10:58:46.876Z,451.00
2019-03-15T10:58:49.883Z,458.00
2019-03-15T10:58:51.886Z,447.00
2019-03-15T10:58:53.883Z,440.00
2019-03-15T10:58:55.887Z,440.00
2019-03-15T10:58:58.883Z,441.00
2019-03-15T10:59:00.879Z,441.00
2019-03-15T10:59:02.869Z,451.00
2019-03-15T10:59:05.887Z,451.00
2019-03-15T10:59:07.896Z,452.00
2019-03-15T10:59:10.531Z,461.00
2019-03-15T10:59:13.538Z,459.00
2019-03-15T10:59:14.884Z,461.00
2019-03-15T10:59:16.874Z,494.00
2019-03-15T10:59:19.532Z,1079.00
2019-03-15T10:59:22.553Z,742.00
2019-03-15T10:59:23.876Z,616.00
2019-03-15T10:59:25.884Z,557.00
2019-03-15T10:59:28.883Z,546.00
2019-03-15T10:59:30.877Z,534.00
2019-03-15T10:59:32.882Z,522.00
2019-03-15T10:59:35.859Z,512.00
2019-03-15T10:59:37.168Z,497.00
2019-03-15T10:59:40.534Z,506.00
2019-03-15T10:59:41.867Z,472.00
2019-03-15T10:59:44.881Z,480.00
2019-03-15T10:59:46.878Z,474.00
2019-03-15T10:59:49.555Z,475.00
2019-03-15T10:59:51.935Z,478.00
2019-03-15T10:59:53.886Z,554.00
2019-03-15T10:59:55.882Z,547.00
2019-03-15T10:59:57.875Z,760.00
2019-03-15T11:00:00.871Z,684.00
2019-03-15T11:00:02.889Z,584.00
2019-03-15T11:00:04.892Z,522.00
2019-03-15T11:00:07.893Z,494.00
2019-03-15T11:00:09.888Z,481.00
2019-03-15T11:00:11.875Z,466.00
2019-03-15T11:00:14.871Z,643.00
2019-03-15T11:00:16.885Z,793.00
2019-03-15T11:00:18.884Z,597.00
2019-03-15T11:00:20.883Z,558.00
2019-03-15T11:00:23.887Z,536.00
2019-03-15T11:00:25.873Z,512.00
2019-03-15T11:00:27.869Z,514.00
2019-03-15T11:00:30.888Z,521.00
2019-03-15T11:00:32.917Z,565.00
2019-03-15T11:00:34.898Z,561.00
2019-03-15T11:00:36.878Z,516.00
2019-03-15T11:00:39.870Z,497.00
2019-03-15T11:00:41.889Z,504.00
2019-03-15T11:00:43.884Z,483.00
2019-03-15T11:00:46.879Z,503.00
2019-03-15T11:00:48.875Z,505.00
2019-03-15T11:00:50.870Z,486.00
2019-03-15T11:00:53.893Z,486.00
2019-03-15T11:00:55.886Z,477.00
2019-03-15T11:00:57.882Z,477.00
2019-03-15T11:00:59.876Z,476.00
2019-03-15T11:01:02.870Z,470.00
2019-03-15T11:01:04.869Z,487.00
2019-03-15T11:01:06.890Z,1379.00
2019-03-15T11:01:09.882Z,910.00
2019-03-15T11:01:11.881Z,582.00
2019-03-15T11:01:13.882Z,495.00
2019-03-15T11:01:16.866Z,457.00
2019-03-15T11:01:18.207Z,440.00
2019-03-15T11:01:20.887Z,415.00
2019-03-15T11:01:22.892Z,1498.00
2019-03-15T11:01:25.881Z,5219.00
2019-03-15T11:01:27.879Z,2521.00
2019-03-15T11:01:29.870Z,1146.00
2019-03-15T11:01:32.865Z,730.00
2019-03-15T11:01:34.895Z,568.00
2019-03-15T11:01:36.883Z,506.00
2019-03-15T11:01:38.917Z,535.00
2019-03-15T11:01:41.973Z,552.00
2019-03-15T11:01:43.872Z,482.00
2019-03-15T11:01:45.869Z,472.00
2019-03-15T11:01:48.867Z,451.00
2019-03-15T11:01:50.890Z,445.00
2019-03-15T11:01:52.885Z,434.00
2019-03-15T11:01:55.883Z,420.00
2019-03-15T11:01:57.877Z,418.00
2019-03-15T11:01:59.876Z,1236.00
2019-03-15T11:02:01.871Z,1393.00
2019-03-15T11:02:04.897Z,686.00
2019-03-15T11:02:06.902Z,506.00
2019-03-15T11:02:08.950Z,453.00
2019-03-15T11:02:11.882Z,430.00
2019-03-15T11:02:13.884Z,426.00
2019-03-15T11:02:15.877Z,413.00
2019-03-15T11:02:18.862Z,401.00
2019-03-15T11:02:20.175Z,404.00
2019-03-15T11:02:22.532Z,409.00
2019-03-15T11:02:24.894Z,1533.00
